Roaring River, North Carolina
Current Conditions -  °F | °C
As of 11:35 AM on Tuesday 21 Oct 2014 (Local Time) from KUKF Reporting Station
Broken Clouds Broken Clouds  
Wind Chill: 64°   Ceiling: 6000
Heat Index: 64°   Visibility: 10mi
Dew Point: 48°   Wind: 9mph
Humidity: 56%   Direction: 250°WSW
Pressure: 30"   Gusts: NA
Location:  36.21°N, 81°W
Report Text: KUKF 211535Z AUTO 25008KT 10SM BKN060 18/09 A3000 RMK AO2
Loading
Personal Weather Stations






























Interactive Weather Map
Tropical Storm Tracking
New forecast layout! Learn more

10-Day Weather Forecast

Advertisements
Track Severe Weather on mobile